sensor_id;sensor_type;location;lat;lon;timestamp;temperature;humidity
43808;DHT22;29438;50.664;10.098;2023-04-01T00:02:06;7.70;89.70
43808;DHT22;29438;50.664;10.098;2023-04-01T00:04:31;7.80;89.50
43808;DHT22;29438;50.664;10.098;2023-04-01T00:06:57;7.70;89.60
43808;DHT22;29438;50.664;10.098;2023-04-01T00:09:23;7.70;89.90
43808;DHT22;29438;50.664;10.098;2023-04-01T00:11:48;7.70;89.80
43808;DHT22;29438;50.664;10.098;2023-04-01T00:14:14;7.70;89.50
43808;DHT22;29438;50.664;10.098;2023-04-01T00:16:40;7.70;89.70
43808;DHT22;29438;50.664;10.098;2023-04-01T00:19:06;7.70;89.80
43808;DHT22;29438;50.664;10.098;2023-04-01T00:21:31;7.70;89.50
43808;DHT22;29438;50.664;10.098;2023-04-01T00:23:57;7.70;89.70
43808;DHT22;29438;50.664;10.098;2023-04-01T00:26:23;7.70;89.80
43808;DHT22;29438;50.664;10.098;2023-04-01T00:28:49;7.70;89.80
43808;DHT22;29438;50.664;10.098;2023-04-01T00:31:15;7.70;89.70
43808;DHT22;29438;50.664;10.098;2023-04-01T00:33:41;7.60;89.60
43808;DHT22;29438;50.664;10.098;2023-04-01T00:36:10;7.70;89.80
43808;DHT22;29438;50.664;10.098;2023-04-01T00:38:36;7.70;89.70
43808;DHT22;29438;50.664;10.098;2023-04-01T00:41:03;7.70;89.70
43808;DHT22;29438;50.664;10.098;2023-04-01T00:43:29;7.70;89.70
43808;DHT22;29438;50.664;10.098;2023-04-01T00:45:55;7.70;89.50
43808;DHT22;29438;50.664;10.098;2023-04-01T00:48:27;7.70;89.60
43808;DHT22;29438;50.664;10.098;2023-04-01T00:53:22;7.70;89.10
43808;DHT22;29438;50.664;10.098;2023-04-01T00:55:57;7.70;89.00
43808;DHT22;29438;50.664;10.098;2023-04-01T00:58:24;7.70;89.20
43808;DHT22;29438;50.664;10.098;2023-04-01T01:00:51;7.70;89.30
43808;DHT22;29438;50.664;10.098;2023-04-01T01:03:17;7.60;89.10
43808;DHT22;29438;50.664;10.098;2023-04-01T01:08:19;7.60;89.60
43808;DHT22;29438;50.664;10.098;2023-04-01T01:10:49;7.50;89.70
43808;DHT22;29438;50.664;10.098;2023-04-01T01:13:27;7.50;89.50
43808;DHT22;29438;50.664;10.098;2023-04-01T01:16:06;7.50;89.40
43808;DHT22;29438;50.664;10.098;2023-04-01T01:18:41;7.50;89.50
43808;DHT22;29438;50.664;10.098;2023-04-01T01:21:47;7.50;89.70
43808;DHT22;29438;50.664;10.098;2023-04-01T01:27:19;7.50;89.70
43808;DHT22;29438;50.664;10.098;2023-04-01T01:33:13;7.50;89.70
43808;DHT22;29438;50.664;10.098;2023-04-01T01:35:50;7.50;89.70
43808;DHT22;29438;50.664;10.098;2023-04-01T01:38:21;7.50;89.10
43808;DHT22;29438;50.664;10.098;2023-04-01T01:40:50;7.50;89.70
43808;DHT22;29438;50.664;10.098;2023-04-01T01:43:22;7.50;89.30
43808;DHT22;29438;50.664;10.098;2023-04-01T01:45:52;7.50;89.50
43808;DHT22;29438;50.664;10.098;2023-04-01T01:48:20;7.50;89.70
43808;DHT22;29438;50.664;10.098;2023-04-01T01:50:46;7.50;89.70
43808;DHT22;29438;50.664;10.098;2023-04-01T01:53:14;7.50;89.40
43808;DHT22;29438;50.664;10.098;2023-04-01T01:55:42;7.50;89.40
43808;DHT22;29438;50.664;10.098;2023-04-01T01:58:32;7.50;89.20
43808;DHT22;29438;50.664;10.098;2023-04-01T02:01:07;7.50;89.60
43808;DHT22;29438;50.664;10.098;2023-04-01T02:03:36;7.50;89.80
43808;DHT22;29438;50.664;10.098;2023-04-01T02:06:04;7.40;89.40
43808;DHT22;29438;50.664;10.098;2023-04-01T02:08:36;7.50;89.40
43808;DHT22;29438;50.664;10.098;2023-04-01T02:11:07;7.50;89.40
43808;DHT22;29438;50.664;10.098;2023-04-01T02:14:24;7.40;89.50
43808;DHT22;29438;50.664;10.098;2023-04-01T02:16:50;7.50;89.30
43808;DHT22;29438;50.664;10.098;2023-04-01T02:19:17;7.50;89.40
43808;DHT22;29438;50.664;10.098;2023-04-01T02:21:53;7.50;89.30
43808;DHT22;29438;50.664;10.098;2023-04-01T02:24:21;7.50;89.10
43808;DHT22;29438;50.664;10.098;2023-04-01T02:26:50;7.50;89.30
43808;DHT22;29438;50.664;10.098;2023-04-01T02:29:22;7.50;89.00
43808;DHT22;29438;50.664;10.098;2023-04-01T02:31:49;7.50;89.00
43808;DHT22;29438;50.664;10.098;2023-04-01T02:34:15;7.50;88.90
43808;DHT22;29438;50.664;10.098;2023-04-01T02:36:41;7.50;88.30
43808;DHT22;29438;50.664;10.098;2023-04-01T02:39:07;7.50;88.40
43808;DHT22;29438;50.664;10.098;2023-04-01T02:41:39;7.50;88.60
43808;DHT22;29438;50.664;10.098;2023-04-01T02:44:06;7.40;89.10
43808;DHT22;29438;50.664;10.098;2023-04-01T02:46:32;7.40;88.80
43808;DHT22;29438;50.664;10.098;2023-04-01T02:48:58;7.40;88.90
43808;DHT22;29438;50.664;10.098;2023-04-01T02:51:23;7.40;88.70
43808;DHT22;29438;50.664;10.098;2023-04-01T02:53:50;7.30;88.90
43808;DHT22;29438;50.664;10.098;2023-04-01T02:56:16;7.40;88.70
43808;DHT22;29438;50.664;10.098;2023-04-01T02:58:41;7.30;88.80
43808;DHT22;29438;50.664;10.098;2023-04-01T03:01:06;7.30;88.90
43808;DHT22;29438;50.664;10.098;2023-04-01T03:03:33;7.30;89.00
43808;DHT22;29438;50.664;10.098;2023-04-01T03:06:05;7.30;89.10
43808;DHT22;29438;50.664;10.098;2023-04-01T03:08:30;7.40;88.90
43808;DHT22;29438;50.664;10.098;2023-04-01T03:10:56;7.40;88.80
43808;DHT22;29438;50.664;10.098;2023-04-01T03:13:21;7.30;88.90
43808;DHT22;29438;50.664;10.098;2023-04-01T03:15:48;7.40;88.60
43808;DHT22;29438;50.664;10.098;2023-04-01T03:18:13;7.30;88.70
43808;DHT22;29438;50.664;10.098;2023-04-01T03:20:39;7.40;88.40
43808;DHT22;29438;50.664;10.098;2023-04-01T03:23:04;7.40;88.60
43808;DHT22;29438;50.664;10.098;2023-04-01T03:25:30;7.30;88.70
43808;DHT22;29438;50.664;10.098;2023-04-01T03:27:56;7.30;88.80
43808;DHT22;29438;50.664;10.098;2023-04-01T03:30:21;7.40;88.50
43808;DHT22;29438;50.664;10.098;2023-04-01T03:32:47;7.40;88.40
43808;DHT22;29438;50.664;10.098;2023-04-01T03:35:12;7.30;88.60
43808;DHT22;29438;50.664;10.098;2023-04-01T03:37:38;7.30;89.00
43808;DHT22;29438;50.664;10.098;2023-04-01T03:40:04;7.30;89.10
43808;DHT22;29438;50.664;10.098;2023-04-01T03:42:30;7.30;89.30
43808;DHT22;29438;50.664;10.098;2023-04-01T03:44:57;7.30;89.30
43808;DHT22;29438;50.664;10.098;2023-04-01T03:47:23;7.30;89.10
43808;DHT22;29438;50.664;10.098;2023-04-01T03:49:48;7.30;88.70
43808;DHT22;29438;50.664;10.098;2023-04-01T03:52:14;7.30;88.60
43808;DHT22;29438;50.664;10.098;2023-04-01T03:54:39;7.30;88.60
43808;DHT22;29438;50.664;10.098;2023-04-01T03:57:05;7.30;88.60
43808;DHT22;29438;50.664;10.098;2023-04-01T03:59:31;7.30;88.70
43808;DHT22;29438;50.664;10.098;2023-04-01T04:01:56;7.30;88.70
43808;DHT22;29438;50.664;10.098;2023-04-01T04:04:22;7.20;89.00
43808;DHT22;29438;50.664;10.098;2023-04-01T04:06:47;7.20;88.80
43808;DHT22;29438;50.664;10.098;2023-04-01T04:09:13;7.20;89.10
43808;DHT22;29438;50.664;10.098;2023-04-01T04:11:39;7.20;89.40
43808;DHT22;29438;50.664;10.098;2023-04-01T04:14:04;7.10;89.30
43808;DHT22;29438;50.664;10.098;2023-04-01T04:16:30;7.10;89.20
43808;DHT22;29438;50.664;10.098;2023-04-01T04:18:56;7.10;89.10
43808;DHT22;29438;50.664;10.098;2023-04-01T04:21:21;7.10;89.00
43808;DHT22;29438;50.664;10.098;2023-04-01T04:23:47;7.20;88.80
43808;DHT22;29438;50.664;10.098;2023-04-01T04:26:14;7.20;89.10
43808;DHT22;29438;50.664;10.098;2023-04-01T04:28:40;7.20;88.60
43808;DHT22;29438;50.664;10.098;2023-04-01T04:31:06;7.20;88.80
43808;DHT22;29438;50.664;10.098;2023-04-01T04:33:32;7.20;88.50
43808;DHT22;29438;50.664;10.098;2023-04-01T04:35:58;7.20;88.80
43808;DHT22;29438;50.664;10.098;2023-04-01T04:38:25;7.20;88.40
43808;DHT22;29438;50.664;10.098;2023-04-01T04:40:50;7.20;88.30
43808;DHT22;29438;50.664;10.098;2023-04-01T04:43:17;7.20;88.40
43808;DHT22;29438;50.664;10.098;2023-04-01T04:45:43;7.20;88.70
43808;DHT22;29438;50.664;10.098;2023-04-01T04:48:11;7.20;89.00
43808;DHT22;29438;50.664;10.098;2023-04-01T04:50:45;7.20;88.90
43808;DHT22;29438;50.664;10.098;2023-04-01T04:53:12;7.20;89.00
43808;DHT22;29438;50.664;10.098;2023-04-01T04:55:38;7.20;88.90
43808;DHT22;29438;50.664;10.098;2023-04-01T04:58:07;7.20;89.00
43808;DHT22;29438;50.664;10.098;2023-04-01T05:00:32;7.20;89.20
43808;DHT22;29438;50.664;10.098;2023-04-01T05:02:58;7.10;89.20
43808;DHT22;29438;50.664;10.098;2023-04-01T05:05:23;7.20;89.10
43808;DHT22;29438;50.664;10.098;2023-04-01T05:07:49;7.20;89.20
43808;DHT22;29438;50.664;10.098;2023-04-01T05:10:14;7.10;89.30
43808;DHT22;29438;50.664;10.098;2023-04-01T05:12:40;7.20;89.00
43808;DHT22;29438;50.664;10.098;2023-04-01T05:15:06;7.20;89.20
43808;DHT22;29438;50.664;10.098;2023-04-01T05:17:32;7.20;89.20
43808;DHT22;29438;50.664;10.098;2023-04-01T05:19:58;7.20;89.60
43808;DHT22;29438;50.664;10.098;2023-04-01T05:22:23;7.20;89.60
43808;DHT22;29438;50.664;10.098;2023-04-01T05:24:49;7.20;89.60
43808;DHT22;29438;50.664;10.098;2023-04-01T05:27:15;7.20;89.80
43808;DHT22;29438;50.664;10.098;2023-04-01T05:29:41;7.20;89.80
43808;DHT22;29438;50.664;10.098;2023-04-01T05:32:06;7.20;90.20
43808;DHT22;29438;50.664;10.098;2023-04-01T05:34:32;7.20;90.00
43808;DHT22;29438;50.664;10.098;2023-04-01T05:36:57;7.20;89.80
43808;DHT22;29438;50.664;10.098;2023-04-01T05:39:23;7.20;89.90
43808;DHT22;29438;50.664;10.098;2023-04-01T05:41:48;7.30;89.30
43808;DHT22;29438;50.664;10.098;2023-04-01T05:44:14;7.30;89.50
43808;DHT22;29438;50.664;10.098;2023-04-01T05:46:40;7.30;89.40
43808;DHT22;29438;50.664;10.098;2023-04-01T05:49:05;7.30;89.10
43808;DHT22;29438;50.664;10.098;2023-04-01T05:51:31;7.30;89.20
43808;DHT22;29438;50.664;10.098;2023-04-01T05:53:56;7.40;89.30
43808;DHT22;29438;50.664;10.098;2023-04-01T05:56:22;7.40;89.00
43808;DHT22;29438;50.664;10.098;2023-04-01T05:58:52;7.50;88.70
43808;DHT22;29438;50.664;10.098;2023-04-01T06:01:18;7.50;88.80
43808;DHT22;29438;50.664;10.098;2023-04-01T06:03:44;7.60;88.80
43808;DHT22;29438;50.664;10.098;2023-04-01T06:06:15;7.60;88.70
43808;DHT22;29438;50.664;10.098;2023-04-01T06:08:42;7.70;88.20
43808;DHT22;29438;50.664;10.098;2023-04-01T06:11:19;7.70;88.10
43808;DHT22;29438;50.664;10.098;2023-04-01T06:14:11;7.70;87.70
43808;DHT22;29438;50.664;10.098;2023-04-01T06:19:32;7.80;87.50
43808;DHT22;29438;50.664;10.098;2023-04-01T06:27:45;7.80;86.90
43808;DHT22;29438;50.664;10.098;2023-04-01T06:30:33;7.80;87.50
43808;DHT22;29438;50.664;10.098;2023-04-01T06:33:32;7.70;88.00
43808;DHT22;29438;50.664;10.098;2023-04-01T06:36:32;7.80;88.30
43808;DHT22;29438;50.664;10.098;2023-04-01T06:39:11;7.80;88.20
43808;DHT22;29438;50.664;10.098;2023-04-01T06:42:07;7.80;88.00
43808;DHT22;29438;50.664;10.098;2023-04-01T06:44:48;7.80;88.00
43808;DHT22;29438;50.664;10.098;2023-04-01T06:50:24;7.80;87.10
43808;DHT22;29438;50.664;10.098;2023-04-01T06:53:11;7.90;87.40
43808;DHT22;29438;50.664;10.098;2023-04-01T06:55:55;7.90;87.40
43808;DHT22;29438;50.664;10.098;2023-04-01T06:58:23;7.90;87.40
43808;DHT22;29438;50.664;10.098;2023-04-01T07:00:53;7.80;87.50
43808;DHT22;29438;50.664;10.098;2023-04-01T07:03:42;7.80;87.70
43808;DHT22;29438;50.664;10.098;2023-04-01T07:06:43;7.80;87.00
43808;DHT22;29438;50.664;10.098;2023-04-01T07:09:05;7.90;87.80
43808;DHT22;29438;50.664;10.098;2023-04-01T07:11:34;7.80;87.90
43808;DHT22;29438;50.664;10.098;2023-04-01T07:14:02;7.90;87.80
43808;DHT22;29438;50.664;10.098;2023-04-01T07:16:41;8.00;87.80
43808;DHT22;29438;50.664;10.098;2023-04-01T07:19:14;8.00;88.00
43808;DHT22;29438;50.664;10.098;2023-04-01T07:21:46;8.00;87.60
43808;DHT22;29438;50.664;10.098;2023-04-01T07:24:37;8.20;87.20
43808;DHT22;29438;50.664;10.098;2023-04-01T07:27:08;8.50;87.30
43808;DHT22;29438;50.664;10.098;2023-04-01T07:29:34;8.80;86.50
43808;DHT22;29438;50.664;10.098;2023-04-01T07:32:21;8.90;85.20
43808;DHT22;29438;50.664;10.098;2023-04-01T07:34:58;9.10;85.00
43808;DHT22;29438;50.664;10.098;2023-04-01T07:40:24;9.00;85.40
43808;DHT22;29438;50.664;10.098;2023-04-01T07:45:54;9.10;85.90
43808;DHT22;29438;50.664;10.098;2023-04-01T07:51:02;8.90;85.20
43808;DHT22;29438;50.664;10.098;2023-04-01T07:53:36;8.90;85.10
43808;DHT22;29438;50.664;10.098;2023-04-01T07:56:10;9.00;85.40
43808;DHT22;29438;50.664;10.098;2023-04-01T07:58:52;9.10;84.60
43808;DHT22;29438;50.664;10.098;2023-04-01T08:01:23;9.40;84.60
43808;DHT22;29438;50.664;10.098;2023-04-01T08:15:28;9.60;83.60
43808;DHT22;29438;50.664;10.098;2023-04-01T08:18:04;9.50;83.80
43808;DHT22;29438;50.664;10.098;2023-04-01T08:23:26;9.30;85.00
43808;DHT22;29438;50.664;10.098;2023-04-01T08:31:22;9.30;84.50
43808;DHT22;29438;50.664;10.098;2023-04-01T08:33:53;9.40;84.90
43808;DHT22;29438;50.664;10.098;2023-04-01T08:36:25;9.80;83.40
43808;DHT22;29438;50.664;10.098;2023-04-01T08:39:04;10.00;82.70
43808;DHT22;29438;50.664;10.098;2023-04-01T08:47:08;10.50;81.70
43808;DHT22;29438;50.664;10.098;2023-04-01T08:53:03;10.30;81.90
43808;DHT22;29438;50.664;10.098;2023-04-01T08:55:47;10.40;81.50
43808;DHT22;29438;50.664;10.098;2023-04-01T08:58:23;10.60;81.50
43808;DHT22;29438;50.664;10.098;2023-04-01T09:10:20;10.20;81.50
43808;DHT22;29438;50.664;10.098;2023-04-01T09:13:07;10.30;82.10
43808;DHT22;29438;50.664;10.098;2023-04-01T09:27:05;11.50;78.80
43808;DHT22;29438;50.664;10.098;2023-04-01T09:30:18;11.60;78.70
43808;DHT22;29438;50.664;10.098;2023-04-01T09:33:34;11.70;78.70
43808;DHT22;29438;50.664;10.098;2023-04-01T09:41:44;11.70;79.10
43808;DHT22;29438;50.664;10.098;2023-04-01T09:44:26;11.80;77.90
43808;DHT22;29438;50.664;10.098;2023-04-01T09:52:56;11.90;79.00
43808;DHT22;29438;50.664;10.098;2023-04-01T09:58:51;11.20;78.90
43808;DHT22;29438;50.664;10.098;2023-04-01T10:10:34;10.70;80.20
43808;DHT22;29438;50.664;10.098;2023-04-01T10:16:06;11.10;80.20
43808;DHT22;29438;50.664;10.098;2023-04-01T10:19:12;11.20;79.50
43808;DHT22;29438;50.664;10.098;2023-04-01T10:21:59;11.40;79.20
43808;DHT22;29438;50.664;10.098;2023-04-01T10:27:18;11.70;78.40
43808;DHT22;29438;50.664;10.098;2023-04-01T10:32:59;11.50;79.40
43808;DHT22;29438;50.664;10.098;2023-04-01T10:38:44;10.90;80.20
43808;DHT22;29438;50.664;10.098;2023-04-01T10:57:36;11.00;80.70
43808;DHT22;29438;50.664;10.098;2023-04-01T11:05:49;12.00;78.10
43808;DHT22;29438;50.664;10.098;2023-04-01T11:14:35;12.00;78.80
43808;DHT22;29438;50.664;10.098;2023-04-01T11:23:19;11.60;79.40
43808;DHT22;29438;50.664;10.098;2023-04-01T11:29:03;11.70;80.00
43808;DHT22;29438;50.664;10.098;2023-04-01T11:43:18;12.40;78.70
43808;DHT22;29438;50.664;10.098;2023-04-01T11:46:22;12.30;78.60
43808;DHT22;29438;50.664;10.098;2023-04-01T11:49:17;12.00;80.10
43808;DHT22;29438;50.664;10.098;2023-04-01T11:54:44;12.20;79.80
43808;DHT22;29438;50.664;10.098;2023-04-01T11:57:35;12.40;79.40
43808;DHT22;29438;50.664;10.098;2023-04-01T12:00:26;12.40;78.50
43808;DHT22;29438;50.664;10.098;2023-04-01T12:03:35;12.60;79.00
43808;DHT22;29438;50.664;10.098;2023-04-01T12:06:30;12.80;77.70
43808;DHT22;29438;50.664;10.098;2023-04-01T12:14:27;12.30;78.50
43808;DHT22;29438;50.664;10.098;2023-04-01T12:20:17;12.20;78.40
43808;DHT22;29438;50.664;10.098;2023-04-01T12:23:14;12.30;79.00
43808;DHT22;29438;50.664;10.098;2023-04-01T12:28:32;12.90;78.80
43808;DHT22;29438;50.664;10.098;2023-04-01T12:31:25;12.70;78.00
43808;DHT22;29438;50.664;10.098;2023-04-01T12:37:20;12.10;78.10
43808;DHT22;29438;50.664;10.098;2023-04-01T12:45:30;12.30;79.60
43808;DHT22;29438;50.664;10.098;2023-04-01T12:48:10;12.50;79.50
43808;DHT22;29438;50.664;10.098;2023-04-01T12:56:20;12.80;76.30
43808;DHT22;29438;50.664;10.098;2023-04-01T13:02:00;12.30;77.30
43808;DHT22;29438;50.664;10.098;2023-04-01T13:04:39;12.10;76.90
43808;DHT22;29438;50.664;10.098;2023-04-01T13:07:18;11.80;79.30
43808;DHT22;29438;50.664;10.098;2023-04-01T13:18:52;11.40;81.60
43808;DHT22;29438;50.664;10.098;2023-04-01T13:24:36;11.50;82.00
43808;DHT22;29438;50.664;10.098;2023-04-01T13:32:41;11.00;83.60
43808;DHT22;29438;50.664;10.098;2023-04-01T13:35:22;11.00;83.10
43808;DHT22;29438;50.664;10.098;2023-04-01T13:38:37;10.70;83.40
43808;DHT22;29438;50.664;10.098;2023-04-01T13:43:39;10.60;85.10
43808;DHT22;29438;50.664;10.098;2023-04-01T13:49:00;10.70;85.10
43808;DHT22;29438;50.664;10.098;2023-04-01T13:54:31;10.80;84.40
43808;DHT22;29438;50.664;10.098;2023-04-01T14:02:41;11.20;85.00
43808;DHT22;29438;50.664;10.098;2023-04-01T14:05:35;11.20;84.00
43808;DHT22;29438;50.664;10.098;2023-04-01T14:16:52;10.60;85.40
43808;DHT22;29438;50.664;10.098;2023-04-01T14:30:40;10.40;86.70
43808;DHT22;29438;50.664;10.098;2023-04-01T14:44:23;10.80;85.90
43808;DHT22;29438;50.664;10.098;2023-04-01T14:51:02;10.80;84.60
43808;DHT22;29438;50.664;10.098;2023-04-01T14:55:54;11.00;84.10
43808;DHT22;29438;50.664;10.098;2023-04-01T14:58:22;10.90;84.70
43808;DHT22;29438;50.664;10.098;2023-04-01T15:04:13;10.90;84.90
43808;DHT22;29438;50.664;10.098;2023-04-01T15:07:11;10.90;84.90
43808;DHT22;29438;50.664;10.098;2023-04-01T15:12:53;10.80;85.20
43808;DHT22;29438;50.664;10.098;2023-04-01T15:24:06;10.60;85.80
43808;DHT22;29438;50.664;10.098;2023-04-01T15:32:00;10.60;86.30
43808;DHT22;29438;50.664;10.098;2023-04-01T15:45:51;10.80;86.60
43808;DHT22;29438;50.664;10.098;2023-04-01T15:48:51;10.60;86.50
43808;DHT22;29438;50.664;10.098;2023-04-01T15:59:54;10.30;86.90
43808;DHT22;29438;50.664;10.098;2023-04-01T16:02:31;10.40;86.90
43808;DHT22;29438;50.664;10.098;2023-04-01T16:05:32;10.30;86.90
43808;DHT22;29438;50.664;10.098;2023-04-01T16:19:44;10.00;88.00
43808;DHT22;29438;50.664;10.098;2023-04-01T16:28:28;9.80;88.50
43808;DHT22;29438;50.664;10.098;2023-04-01T16:36:48;9.60;88.50
43808;DHT22;29438;50.664;10.098;2023-04-01T16:39:35;9.60;89.00
43808;DHT22;29438;50.664;10.098;2023-04-01T16:47:36;9.50;89.70
43808;DHT22;29438;50.664;10.098;2023-04-01T16:50:30;9.40;89.80
43808;DHT22;29438;50.664;10.098;2023-04-01T16:55:56;9.30;90.40
43808;DHT22;29438;50.664;10.098;2023-04-01T16:58:36;9.30;90.80
43808;DHT22;29438;50.664;10.098;2023-04-01T17:01:13;9.30;90.80
43808;DHT22;29438;50.664;10.098;2023-04-01T17:03:45;9.20;90.70
43808;DHT22;29438;50.664;10.098;2023-04-01T17:26:10;8.80;91.10
43808;DHT22;29438;50.664;10.098;2023-04-01T17:28:52;8.70;91.20
43808;DHT22;29438;50.664;10.098;2023-04-01T17:36:42;8.70;91.20
43808;DHT22;29438;50.664;10.098;2023-04-01T17:55:44;8.50;92.00
43808;DHT22;29438;50.664;10.098;2023-04-01T17:58:38;8.50;92.00
43808;DHT22;29438;50.664;10.098;2023-04-01T18:09:17;8.50;92.00
43808;DHT22;29438;50.664;10.098;2023-04-01T18:12:24;8.50;92.10
43808;DHT22;29438;50.664;10.098;2023-04-01T18:17:56;8.40;92.20
43808;DHT22;29438;50.664;10.098;2023-04-01T18:20:53;8.30;92.30
43808;DHT22;29438;50.664;10.098;2023-04-01T18:26:24;8.30;92.50
43808;DHT22;29438;50.664;10.098;2023-04-01T18:34:53;8.30;92.80
43808;DHT22;29438;50.664;10.098;2023-04-01T18:37:36;8.30;92.80
43808;DHT22;29438;50.664;10.098;2023-04-01T18:40:18;8.20;92.80
43808;DHT22;29438;50.664;10.098;2023-04-01T18:42:55;8.20;92.80
43808;DHT22;29438;50.664;10.098;2023-04-01T18:45:31;8.20;92.90
43808;DHT22;29438;50.664;10.098;2023-04-01T18:48:14;8.10;92.90
43808;DHT22;29438;50.664;10.098;2023-04-01T18:53:31;8.20;93.10
43808;DHT22;29438;50.664;10.098;2023-04-01T18:56:13;8.20;93.10
43808;DHT22;29438;50.664;10.098;2023-04-01T18:59:04;8.10;93.10
43808;DHT22;29438;50.664;10.098;2023-04-01T19:06:52;8.10;93.30
43808;DHT22;29438;50.664;10.098;2023-04-01T19:14:51;8.00;93.30
43808;DHT22;29438;50.664;10.098;2023-04-01T19:17:31;8.00;93.40
43808;DHT22;29438;50.664;10.098;2023-04-01T19:25:55;8.10;93.60
43808;DHT22;29438;50.664;10.098;2023-04-01T19:28:38;8.10;93.60
43808;DHT22;29438;50.664;10.098;2023-04-01T19:36:48;8.00;93.70
43808;DHT22;29438;50.664;10.098;2023-04-01T19:42:30;8.00;93.80
43808;DHT22;29438;50.664;10.098;2023-04-01T19:47:53;8.00;93.90
43808;DHT22;29438;50.664;10.098;2023-04-01T19:50:40;8.00;93.90
43808;DHT22;29438;50.664;10.098;2023-04-01T19:53:22;8.00;94.00
43808;DHT22;29438;50.664;10.098;2023-04-01T19:56:18;8.00;94.00
43808;DHT22;29438;50.664;10.098;2023-04-01T20:01:24;8.00;94.00
43808;DHT22;29438;50.664;10.098;2023-04-01T20:04:13;8.00;94.10
43808;DHT22;29438;50.664;10.098;2023-04-01T20:07:17;8.00;94.10
43808;DHT22;29438;50.664;10.098;2023-04-01T20:10:07;7.90;94.10
43808;DHT22;29438;50.664;10.098;2023-04-01T20:12:53;7.90;94.10
43808;DHT22;29438;50.664;10.098;2023-04-01T20:15:36;7.90;94.10
43808;DHT22;29438;50.664;10.098;2023-04-01T20:18:13;7.90;94.20
43808;DHT22;29438;50.664;10.098;2023-04-01T20:20:53;8.00;94.20
43808;DHT22;29438;50.664;10.098;2023-04-01T20:25:57;8.00;94.30
43808;DHT22;29438;50.664;10.098;2023-04-01T20:28:43;8.00;94.20
43808;DHT22;29438;50.664;10.098;2023-04-01T20:34:18;8.00;94.10
43808;DHT22;29438;50.664;10.098;2023-04-01T20:36:54;8.00;94.10
43808;DHT22;29438;50.664;10.098;2023-04-01T20:39:40;8.00;94.00
43808;DHT22;29438;50.664;10.098;2023-04-01T20:50:48;8.00;93.80
43808;DHT22;29438;50.664;10.098;2023-04-01T20:53:20;8.10;93.70
43808;DHT22;29438;50.664;10.098;2023-04-01T20:58:28;8.10;93.70
43808;DHT22;29438;50.664;10.098;2023-04-01T21:01:13;8.00;93.70
43808;DHT22;29438;50.664;10.098;2023-04-01T21:06:43;8.00;93.70
43808;DHT22;29438;50.664;10.098;2023-04-01T21:09:33;8.00;93.70
43808;DHT22;29438;50.664;10.098;2023-04-01T21:12:25;8.00;93.50
43808;DHT22;29438;50.664;10.098;2023-04-01T21:15:00;8.00;93.50
43808;DHT22;29438;50.664;10.098;2023-04-01T21:17:54;8.00;93.50
43808;DHT22;29438;50.664;10.098;2023-04-01T21:28:31;8.00;93.50
43808;DHT22;29438;50.664;10.098;2023-04-01T21:31:22;8.00;93.50
43808;DHT22;29438;50.664;10.098;2023-04-01T21:34:31;8.00;93.60
43808;DHT22;29438;50.664;10.098;2023-04-01T21:42:54;7.90;93.70
43808;DHT22;29438;50.664;10.098;2023-04-01T21:48:41;7.90;93.80
43808;DHT22;29438;50.664;10.098;2023-04-01T22:03:27;7.80;93.90
43808;DHT22;29438;50.664;10.098;2023-04-01T22:06:13;7.80;93.90
43808;DHT22;29438;50.664;10.098;2023-04-01T22:09:45;7.80;93.90
43808;DHT22;29438;50.664;10.098;2023-04-01T22:12:00;7.80;94.00
43808;DHT22;29438;50.664;10.098;2023-04-01T22:17:21;7.70;94.10
43808;DHT22;29438;50.664;10.098;2023-04-01T22:20:28;7.70;94.10
43808;DHT22;29438;50.664;10.098;2023-04-01T22:23:01;7.70;94.20
43808;DHT22;29438;50.664;10.098;2023-04-01T22:25:45;7.70;94.20
43808;DHT22;29438;50.664;10.098;2023-04-01T22:30:50;7.70;94.30
43808;DHT22;29438;50.664;10.098;2023-04-01T22:39:19;7.70;94.30
43808;DHT22;29438;50.664;10.098;2023-04-01T22:42:17;7.80;94.40
43808;DHT22;29438;50.664;10.098;2023-04-01T22:45:10;7.70;94.40
43808;DHT22;29438;50.664;10.098;2023-04-01T22:48:06;7.70;94.40
43808;DHT22;29438;50.664;10.098;2023-04-01T22:56:02;7.70;94.40
43808;DHT22;29438;50.664;10.098;2023-04-01T22:58:40;7.70;94.40
43808;DHT22;29438;50.664;10.098;2023-04-01T23:01:14;7.70;94.40
43808;DHT22;29438;50.664;10.098;2023-04-01T23:03:41;7.60;94.40
43808;DHT22;29438;50.664;10.098;2023-04-01T23:06:17;7.60;94.40
43808;DHT22;29438;50.664;10.098;2023-04-01T23:11:32;7.60;94.40
43808;DHT22;29438;50.664;10.098;2023-04-01T23:33:23;7.40;94.40
43808;DHT22;29438;50.664;10.098;2023-04-01T23:35:58;7.50;94.40
43808;DHT22;29438;50.664;10.098;2023-04-01T23:38:39;7.40;94.40
43808;DHT22;29438;50.664;10.098;2023-04-01T23:41:08;7.40;94.40
43808;DHT22;29438;50.664;10.098;2023-04-01T23:43:43;7.40;94.30
43808;DHT22;29438;50.664;10.098;2023-04-01T23:46:12;7.30;94.30
43808;DHT22;29438;50.664;10.098;2023-04-01T23:48:41;7.30;94.30
43808;DHT22;29438;50.664;10.098;2023-04-01T23:51:14;7.30;94.30
43808;DHT22;29438;50.664;10.098;2023-04-01T23:53:44;7.30;94.40
43808;DHT22;29438;50.664;10.098;2023-04-01T23:56:10;7.20;94.40
43808;DHT22;29438;50.664;10.098;2023-04-01T23:58:49;7.20;94.40
